sensor_id;sensor_type;location;lat;lon;timestamp;temperature;humidity
48728;DHT22;34527;45.618;5.130;2023-04-25T00:02:09;10.90;99.90
48728;DHT22;34527;45.618;5.130;2023-04-25T00:04:35;10.90;99.90
48728;DHT22;34527;45.618;5.130;2023-04-25T00:07:00;10.90;99.90
48728;DHT22;34527;45.618;5.130;2023-04-25T00:09:29;11.00;99.90
48728;DHT22;34527;45.618;5.130;2023-04-25T00:11:55;11.00;99.90
48728;DHT22;34527;45.618;5.130;2023-04-25T00:14:21;11.00;99.90
48728;DHT22;34527;45.618;5.130;2023-04-25T00:16:48;11.00;99.90
48728;DHT22;34527;45.618;5.130;2023-04-25T00:19:13;11.00;99.90
48728;DHT22;34527;45.618;5.130;2023-04-25T00:21:39;11.10;99.90
48728;DHT22;34527;45.618;5.130;2023-04-25T00:24:08;11.10;99.90
48728;DHT22;34527;45.618;5.130;2023-04-25T00:26:34;11.00;99.90
48728;DHT22;34527;45.618;5.130;2023-04-25T00:29:01;11.00;99.90
48728;DHT22;34527;45.618;5.130;2023-04-25T00:31:27;11.00;99.90
48728;DHT22;34527;45.618;5.130;2023-04-25T00:33:54;11.00;99.90
48728;DHT22;34527;45.618;5.130;2023-04-25T00:36:20;10.90;99.90
48728;DHT22;34527;45.618;5.130;2023-04-25T00:38:45;11.00;99.90
48728;DHT22;34527;45.618;5.130;2023-04-25T00:41:11;10.90;99.90
48728;DHT22;34527;45.618;5.130;2023-04-25T00:43:37;10.90;99.90
48728;DHT22;34527;45.618;5.130;2023-04-25T00:46:03;10.90;99.90
48728;DHT22;34527;45.618;5.130;2023-04-25T00:48:29;10.80;99.90
48728;DHT22;34527;45.618;5.130;2023-04-25T00:50:57;10.80;99.90
48728;DHT22;34527;45.618;5.130;2023-04-25T00:53:25;10.70;99.90
48728;DHT22;34527;45.618;5.130;2023-04-25T00:55:51;10.70;99.90
48728;DHT22;34527;45.618;5.130;2023-04-25T00:58:18;10.60;99.90
48728;DHT22;34527;45.618;5.130;2023-04-25T01:00:46;10.60;99.90
48728;DHT22;34527;45.618;5.130;2023-04-25T01:03:15;10.60;99.90
48728;DHT22;34527;45.618;5.130;2023-04-25T01:05:50;10.30;99.90
48728;DHT22;34527;45.618;5.130;2023-04-25T01:08:16;10.40;99.90
48728;DHT22;34527;45.618;5.130;2023-04-25T01:10:41;10.40;99.90
48728;DHT22;34527;45.618;5.130;2023-04-25T01:13:07;10.40;99.90
48728;DHT22;34527;45.618;5.130;2023-04-25T01:15:33;10.30;99.90
48728;DHT22;34527;45.618;5.130;2023-04-25T01:18:00;10.20;99.90
48728;DHT22;34527;45.618;5.130;2023-04-25T01:20:27;10.10;99.90
48728;DHT22;34527;45.618;5.130;2023-04-25T01:22:54;10.20;99.90
48728;DHT22;34527;45.618;5.130;2023-04-25T01:25:21;10.20;99.90
48728;DHT22;34527;45.618;5.130;2023-04-25T01:27:47;10.20;99.90
48728;DHT22;34527;45.618;5.130;2023-04-25T01:30:12;10.10;99.90
48728;DHT22;34527;45.618;5.130;2023-04-25T01:32:39;10.10;99.90
48728;DHT22;34527;45.618;5.130;2023-04-25T01:35:06;10.20;99.90
48728;DHT22;34527;45.618;5.130;2023-04-25T01:37:39;10.10;99.90
48728;DHT22;34527;45.618;5.130;2023-04-25T01:40:05;10.20;99.90
48728;DHT22;34527;45.618;5.130;2023-04-25T01:42:32;10.20;99.90
48728;DHT22;34527;45.618;5.130;2023-04-25T01:44:58;10.10;99.90
48728;DHT22;34527;45.618;5.130;2023-04-25T01:47:24;10.20;99.90
48728;DHT22;34527;45.618;5.130;2023-04-25T01:49:50;10.20;99.90
48728;DHT22;34527;45.618;5.130;2023-04-25T01:52:15;10.20;99.90
48728;DHT22;34527;45.618;5.130;2023-04-25T01:54:41;10.20;99.90
48728;DHT22;34527;45.618;5.130;2023-04-25T01:57:10;10.20;99.90
48728;DHT22;34527;45.618;5.130;2023-04-25T01:59:36;10.30;99.90
48728;DHT22;34527;45.618;5.130;2023-04-25T02:02:02;10.40;99.90
48728;DHT22;34527;45.618;5.130;2023-04-25T02:04:29;10.40;99.90
48728;DHT22;34527;45.618;5.130;2023-04-25T02:06:56;10.50;99.90
48728;DHT22;34527;45.618;5.130;2023-04-25T02:09:22;10.50;99.90
48728;DHT22;34527;45.618;5.130;2023-04-25T02:11:48;10.50;99.90
48728;DHT22;34527;45.618;5.130;2023-04-25T02:14:13;10.60;99.90
48728;DHT22;34527;45.618;5.130;2023-04-25T02:16:39;10.60;99.90
48728;DHT22;34527;45.618;5.130;2023-04-25T02:19:05;10.60;99.90
48728;DHT22;34527;45.618;5.130;2023-04-25T02:21:31;10.60;99.90
48728;DHT22;34527;45.618;5.130;2023-04-25T02:23:57;10.60;99.90
48728;DHT22;34527;45.618;5.130;2023-04-25T02:26:23;10.60;99.90
48728;DHT22;34527;45.618;5.130;2023-04-25T02:28:49;10.60;99.90
48728;DHT22;34527;45.618;5.130;2023-04-25T02:31:15;10.60;99.90
48728;DHT22;34527;45.618;5.130;2023-04-25T02:33:41;10.60;99.90
48728;DHT22;34527;45.618;5.130;2023-04-25T02:36:07;10.60;99.90
48728;DHT22;34527;45.618;5.130;2023-04-25T02:38:33;10.60;99.90
48728;DHT22;34527;45.618;5.130;2023-04-25T02:40:58;10.60;99.90
48728;DHT22;34527;45.618;5.130;2023-04-25T02:43:24;10.60;99.90
48728;DHT22;34527;45.618;5.130;2023-04-25T02:45:50;10.60;99.90
48728;DHT22;34527;45.618;5.130;2023-04-25T02:48:15;10.60;99.90
48728;DHT22;34527;45.618;5.130;2023-04-25T02:50:41;10.70;99.90
48728;DHT22;34527;45.618;5.130;2023-04-25T02:53:07;10.70;99.90
48728;DHT22;34527;45.618;5.130;2023-04-25T02:55:32;10.70;99.90
48728;DHT22;34527;45.618;5.130;2023-04-25T02:57:58;10.70;99.90
48728;DHT22;34527;45.618;5.130;2023-04-25T03:00:24;10.70;99.90
48728;DHT22;34527;45.618;5.130;2023-04-25T03:02:50;10.60;99.90
48728;DHT22;34527;45.618;5.130;2023-04-25T03:05:16;10.70;99.90
48728;DHT22;34527;45.618;5.130;2023-04-25T03:07:42;10.70;99.90
48728;DHT22;34527;45.618;5.130;2023-04-25T03:10:09;10.70;99.90
48728;DHT22;34527;45.618;5.130;2023-04-25T03:12:35;10.70;99.90
48728;DHT22;34527;45.618;5.130;2023-04-25T03:15:01;10.60;99.90
48728;DHT22;34527;45.618;5.130;2023-04-25T03:17:27;10.70;99.90
48728;DHT22;34527;45.618;5.130;2023-04-25T03:19:52;10.70;99.90
48728;DHT22;34527;45.618;5.130;2023-04-25T03:22:18;10.70;99.90
48728;DHT22;34527;45.618;5.130;2023-04-25T03:24:43;10.60;99.90
48728;DHT22;34527;45.618;5.130;2023-04-25T03:27:09;10.60;99.90
48728;DHT22;34527;45.618;5.130;2023-04-25T03:29:35;10.70;99.90
48728;DHT22;34527;45.618;5.130;2023-04-25T03:32:00;10.70;99.90
48728;DHT22;34527;45.618;5.130;2023-04-25T03:34:26;10.70;99.90
48728;DHT22;34527;45.618;5.130;2023-04-25T03:36:52;10.70;99.90
48728;DHT22;34527;45.618;5.130;2023-04-25T03:39:17;10.70;99.90
48728;DHT22;34527;45.618;5.130;2023-04-25T03:41:43;10.70;99.90
48728;DHT22;34527;45.618;5.130;2023-04-25T03:44:08;10.70;99.90
48728;DHT22;34527;45.618;5.130;2023-04-25T03:46:34;10.70;99.90
48728;DHT22;34527;45.618;5.130;2023-04-25T03:48:59;10.60;99.90
48728;DHT22;34527;45.618;5.130;2023-04-25T03:51:25;10.60;99.90
48728;DHT22;34527;45.618;5.130;2023-04-25T03:53:51;10.60;99.90
48728;DHT22;34527;45.618;5.130;2023-04-25T03:56:17;10.50;99.90
48728;DHT22;34527;45.618;5.130;2023-04-25T03:58:43;10.60;99.90
48728;DHT22;34527;45.618;5.130;2023-04-25T04:01:08;10.60;99.90
48728;DHT22;34527;45.618;5.130;2023-04-25T04:03:35;10.50;99.90
48728;DHT22;34527;45.618;5.130;2023-04-25T04:06:03;10.50;99.90
48728;DHT22;34527;45.618;5.130;2023-04-25T04:08:29;10.50;99.90
48728;DHT22;34527;45.618;5.130;2023-04-25T04:10:56;10.60;99.90
48728;DHT22;34527;45.618;5.130;2023-04-25T04:13:22;10.50;99.90
48728;DHT22;34527;45.618;5.130;2023-04-25T04:15:48;10.50;99.90
48728;DHT22;34527;45.618;5.130;2023-04-25T04:18:13;10.50;99.90
48728;DHT22;34527;45.618;5.130;2023-04-25T04:20:39;10.50;99.90
48728;DHT22;34527;45.618;5.130;2023-04-25T04:23:04;10.50;99.90
48728;DHT22;34527;45.618;5.130;2023-04-25T04:25:31;10.50;99.90
48728;DHT22;34527;45.618;5.130;2023-04-25T04:27:56;10.50;99.90
48728;DHT22;34527;45.618;5.130;2023-04-25T04:30:23;10.50;99.90
48728;DHT22;34527;45.618;5.130;2023-04-25T04:32:50;10.50;99.90
48728;DHT22;34527;45.618;5.130;2023-04-25T04:35:15;10.50;99.90
48728;DHT22;34527;45.618;5.130;2023-04-25T04:37:41;10.50;99.90
48728;DHT22;34527;45.618;5.130;2023-04-25T04:40:07;10.40;99.90
48728;DHT22;34527;45.618;5.130;2023-04-25T04:42:33;10.50;99.90
48728;DHT22;34527;45.618;5.130;2023-04-25T04:44:58;10.50;99.90
48728;DHT22;34527;45.618;5.130;2023-04-25T04:47:27;10.50;99.90
48728;DHT22;34527;45.618;5.130;2023-04-25T04:49:56;10.50;99.90
48728;DHT22;34527;45.618;5.130;2023-04-25T04:52:21;10.50;99.90
48728;DHT22;34527;45.618;5.130;2023-04-25T04:54:47;10.50;99.90
48728;DHT22;34527;45.618;5.130;2023-04-25T04:57:13;10.40;99.90
48728;DHT22;34527;45.618;5.130;2023-04-25T04:59:38;10.40;99.90
48728;DHT22;34527;45.618;5.130;2023-04-25T05:02:04;10.50;99.90
48728;DHT22;34527;45.618;5.130;2023-04-25T05:04:29;10.40;99.90
48728;DHT22;34527;45.618;5.130;2023-04-25T05:06:55;10.50;99.90
48728;DHT22;34527;45.618;5.130;2023-04-25T05:09:21;10.50;99.90
48728;DHT22;34527;45.618;5.130;2023-04-25T05:11:51;10.50;99.90
48728;DHT22;34527;45.618;5.130;2023-04-25T05:14:16;10.50;99.90
48728;DHT22;34527;45.618;5.130;2023-04-25T05:16:43;10.50;99.90
48728;DHT22;34527;45.618;5.130;2023-04-25T05:19:09;10.60;99.90
48728;DHT22;34527;45.618;5.130;2023-04-25T05:21:34;10.60;99.90
48728;DHT22;34527;45.618;5.130;2023-04-25T05:24:01;10.60;99.90
48728;DHT22;34527;45.618;5.130;2023-04-25T05:26:26;10.60;99.90
48728;DHT22;34527;45.618;5.130;2023-04-25T05:28:56;10.60;99.90
48728;DHT22;34527;45.618;5.130;2023-04-25T05:31:22;10.50;99.90
48728;DHT22;34527;45.618;5.130;2023-04-25T05:33:48;10.50;99.90
48728;DHT22;34527;45.618;5.130;2023-04-25T05:36:13;10.40;99.90
48728;DHT22;34527;45.618;5.130;2023-04-25T05:38:39;10.50;99.90
48728;DHT22;34527;45.618;5.130;2023-04-25T05:41:04;10.50;99.90
48728;DHT22;34527;45.618;5.130;2023-04-25T05:43:30;10.50;99.90
48728;DHT22;34527;45.618;5.130;2023-04-25T05:45:56;10.60;99.90
48728;DHT22;34527;45.618;5.130;2023-04-25T05:48:21;10.70;99.90
48728;DHT22;34527;45.618;5.130;2023-04-25T05:50:47;10.70;99.90
48728;DHT22;34527;45.618;5.130;2023-04-25T05:53:13;10.80;99.90
48728;DHT22;34527;45.618;5.130;2023-04-25T05:55:38;10.90;99.90
48728;DHT22;34527;45.618;5.130;2023-04-25T05:58:05;10.90;99.90
48728;DHT22;34527;45.618;5.130;2023-04-25T06:00:32;11.00;99.90
48728;DHT22;34527;45.618;5.130;2023-04-25T06:02:58;11.00;99.90
48728;DHT22;34527;45.618;5.130;2023-04-25T06:05:23;11.00;99.90
48728;DHT22;34527;45.618;5.130;2023-04-25T06:07:50;10.90;99.90
48728;DHT22;34527;45.618;5.130;2023-04-25T06:10:16;10.80;99.90
48728;DHT22;34527;45.618;5.130;2023-04-25T06:12:41;10.80;99.90
48728;DHT22;34527;45.618;5.130;2023-04-25T06:15:07;10.90;99.90
48728;DHT22;34527;45.618;5.130;2023-04-25T06:17:33;10.80;99.90
48728;DHT22;34527;45.618;5.130;2023-04-25T06:19:59;10.80;99.90
48728;DHT22;34527;45.618;5.130;2023-04-25T06:22:24;10.80;99.90
48728;DHT22;34527;45.618;5.130;2023-04-25T06:24:50;10.90;99.90
48728;DHT22;34527;45.618;5.130;2023-04-25T06:27:16;10.90;99.90
48728;DHT22;34527;45.618;5.130;2023-04-25T06:29:41;11.00;99.90
48728;DHT22;34527;45.618;5.130;2023-04-25T06:32:07;11.00;99.90
48728;DHT22;34527;45.618;5.130;2023-04-25T06:34:32;11.10;99.90
48728;DHT22;34527;45.618;5.130;2023-04-25T06:36:58;11.10;99.90
48728;DHT22;34527;45.618;5.130;2023-04-25T06:39:23;11.30;99.90
48728;DHT22;34527;45.618;5.130;2023-04-25T06:41:50;11.30;99.90
48728;DHT22;34527;45.618;5.130;2023-04-25T06:44:16;11.50;99.90
48728;DHT22;34527;45.618;5.130;2023-04-25T06:46:41;11.60;99.90
48728;DHT22;34527;45.618;5.130;2023-04-25T06:49:07;11.60;99.90
48728;DHT22;34527;45.618;5.130;2023-04-25T06:51:33;11.70;99.90
48728;DHT22;34527;45.618;5.130;2023-04-25T06:53:59;11.80;99.90
48728;DHT22;34527;45.618;5.130;2023-04-25T06:56:24;11.70;99.90
48728;DHT22;34527;45.618;5.130;2023-04-25T06:58:50;11.90;99.90
48728;DHT22;34527;45.618;5.130;2023-04-25T07:01:16;11.90;99.90
48728;DHT22;34527;45.618;5.130;2023-04-25T07:03:41;11.80;99.90
48728;DHT22;34527;45.618;5.130;2023-04-25T07:06:07;11.70;99.90
48728;DHT22;34527;45.618;5.130;2023-04-25T07:08:32;11.70;99.90
48728;DHT22;34527;45.618;5.130;2023-04-25T07:10:58;11.70;99.90
48728;DHT22;34527;45.618;5.130;2023-04-25T07:13:23;11.60;99.90
48728;DHT22;34527;45.618;5.130;2023-04-25T07:15:49;11.70;99.90
48728;DHT22;34527;45.618;5.130;2023-04-25T07:18:15;11.70;99.90
48728;DHT22;34527;45.618;5.130;2023-04-25T07:20:41;11.70;99.90
48728;DHT22;34527;45.618;5.130;2023-04-25T07:23:06;11.70;99.90
48728;DHT22;34527;45.618;5.130;2023-04-25T07:25:32;11.80;99.90
48728;DHT22;34527;45.618;5.130;2023-04-25T07:27:58;11.80;99.90
48728;DHT22;34527;45.618;5.130;2023-04-25T07:30:23;11.90;99.90
48728;DHT22;34527;45.618;5.130;2023-04-25T07:32:50;12.00;99.90
48728;DHT22;34527;45.618;5.130;2023-04-25T07:35:16;11.90;99.90
48728;DHT22;34527;45.618;5.130;2023-04-25T07:37:42;12.00;99.90
48728;DHT22;34527;45.618;5.130;2023-04-25T07:40:08;11.90;99.90
48728;DHT22;34527;45.618;5.130;2023-04-25T07:42:35;12.20;99.90
48728;DHT22;34527;45.618;5.130;2023-04-25T07:45:01;12.30;99.90
48728;DHT22;34527;45.618;5.130;2023-04-25T07:47:27;12.30;99.90
48728;DHT22;34527;45.618;5.130;2023-04-25T07:49:53;12.20;99.90
48728;DHT22;34527;45.618;5.130;2023-04-25T07:52:19;12.00;99.90
48728;DHT22;34527;45.618;5.130;2023-04-25T07:54:45;11.90;99.90
48728;DHT22;34527;45.618;5.130;2023-04-25T07:57:10;11.80;99.90
48728;DHT22;34527;45.618;5.130;2023-04-25T07:59:36;12.10;99.90
48728;DHT22;34527;45.618;5.130;2023-04-25T08:02:02;12.20;99.90
48728;DHT22;34527;45.618;5.130;2023-04-25T08:04:28;12.50;99.90
48728;DHT22;34527;45.618;5.130;2023-04-25T08:06:54;12.60;99.90
48728;DHT22;34527;45.618;5.130;2023-04-25T08:09:20;12.70;99.90
48728;DHT22;34527;45.618;5.130;2023-04-25T08:11:46;12.50;99.90
48728;DHT22;34527;45.618;5.130;2023-04-25T08:14:13;12.60;99.90
48728;DHT22;34527;45.618;5.130;2023-04-25T08:16:39;12.80;99.90
48728;DHT22;34527;45.618;5.130;2023-04-25T08:19:04;12.80;99.90
48728;DHT22;34527;45.618;5.130;2023-04-25T08:21:30;12.50;99.90
48728;DHT22;34527;45.618;5.130;2023-04-25T08:23:57;12.30;99.90
48728;DHT22;34527;45.618;5.130;2023-04-25T08:26:24;12.20;99.90
48728;DHT22;34527;45.618;5.130;2023-04-25T08:28:50;12.30;99.90
48728;DHT22;34527;45.618;5.130;2023-04-25T08:31:16;12.50;99.90
48728;DHT22;34527;45.618;5.130;2023-04-25T08:33:42;12.50;99.90
48728;DHT22;34527;45.618;5.130;2023-04-25T08:36:08;12.60;99.90
48728;DHT22;34527;45.618;5.130;2023-04-25T08:38:33;12.60;99.90
48728;DHT22;34527;45.618;5.130;2023-04-25T08:41:00;12.40;99.90
48728;DHT22;34527;45.618;5.130;2023-04-25T08:43:29;12.60;99.90
48728;DHT22;34527;45.618;5.130;2023-04-25T08:45:59;12.90;99.90
48728;DHT22;34527;45.618;5.130;2023-04-25T08:48:27;13.10;99.90
48728;DHT22;34527;45.618;5.130;2023-04-25T08:50:55;13.20;99.90
48728;DHT22;34527;45.618;5.130;2023-04-25T08:53:32;13.20;99.90
48728;DHT22;34527;45.618;5.130;2023-04-25T08:55:59;13.10;99.90
48728;DHT22;34527;45.618;5.130;2023-04-25T08:58:24;12.90;99.90
48728;DHT22;34527;45.618;5.130;2023-04-25T09:00:51;12.90;99.90
48728;DHT22;34527;45.618;5.130;2023-04-25T09:03:18;13.00;99.90
48728;DHT22;34527;45.618;5.130;2023-04-25T09:05:43;13.10;99.90
48728;DHT22;34527;45.618;5.130;2023-04-25T09:08:09;13.00;99.90
48728;DHT22;34527;45.618;5.130;2023-04-25T09:10:36;12.80;99.90
48728;DHT22;34527;45.618;5.130;2023-04-25T09:13:03;12.80;99.90
48728;DHT22;34527;45.618;5.130;2023-04-25T09:15:30;12.60;99.90
48728;DHT22;34527;45.618;5.130;2023-04-25T09:17:56;12.90;99.90
48728;DHT22;34527;45.618;5.130;2023-04-25T09:20:22;13.40;99.90
48728;DHT22;34527;45.618;5.130;2023-04-25T09:22:48;13.20;99.90
48728;DHT22;34527;45.618;5.130;2023-04-25T09:25:13;12.90;99.90
48728;DHT22;34527;45.618;5.130;2023-04-25T09:27:53;13.00;99.90
48728;DHT22;34527;45.618;5.130;2023-04-25T09:30:29;13.40;99.90
48728;DHT22;34527;45.618;5.130;2023-04-25T09:33:14;13.60;99.90
48728;DHT22;34527;45.618;5.130;2023-04-25T09:35:42;13.70;99.90
48728;DHT22;34527;45.618;5.130;2023-04-25T09:38:13;13.70;99.90
48728;DHT22;34527;45.618;5.130;2023-04-25T09:40:46;13.80;99.90
48728;DHT22;34527;45.618;5.130;2023-04-25T09:43:22;13.90;99.90
48728;DHT22;34527;45.618;5.130;2023-04-25T09:45:49;13.80;99.90
48728;DHT22;34527;45.618;5.130;2023-04-25T09:48:25;13.70;99.90
48728;DHT22;34527;45.618;5.130;2023-04-25T09:51:04;13.80;99.90
48728;DHT22;34527;45.618;5.130;2023-04-25T09:53:34;13.90;99.90
48728;DHT22;34527;45.618;5.130;2023-04-25T09:56:04;14.00;99.90
48728;DHT22;34527;45.618;5.130;2023-04-25T09:58:31;13.70;99.90
48728;DHT22;34527;45.618;5.130;2023-04-25T10:01:02;13.80;99.90
48728;DHT22;34527;45.618;5.130;2023-04-25T10:03:32;14.10;99.90
48728;DHT22;34527;45.618;5.130;2023-04-25T10:06:07;14.20;99.90
48728;DHT22;34527;45.618;5.130;2023-04-25T10:08:35;14.20;99.90
48728;DHT22;34527;45.618;5.130;2023-04-25T10:11:06;14.30;99.90
48728;DHT22;34527;45.618;5.130;2023-04-25T10:13:33;14.40;99.90
48728;DHT22;34527;45.618;5.130;2023-04-25T10:16:01;14.20;99.90
48728;DHT22;34527;45.618;5.130;2023-04-25T10:18:28;13.70;99.90
48728;DHT22;34527;45.618;5.130;2023-04-25T10:21:00;13.50;99.90
48728;DHT22;34527;45.618;5.130;2023-04-25T10:23:26;13.30;99.90
48728;DHT22;34527;45.618;5.130;2023-04-25T10:25:53;13.40;99.90
48728;DHT22;34527;45.618;5.130;2023-04-25T10:28:20;13.50;99.90
48728;DHT22;34527;45.618;5.130;2023-04-25T10:31:03;13.80;99.90
48728;DHT22;34527;45.618;5.130;2023-04-25T10:33:39;14.10;99.90
48728;DHT22;34527;45.618;5.130;2023-04-25T10:36:24;14.30;99.90
48728;DHT22;34527;45.618;5.130;2023-04-25T10:38:52;14.30;99.90
48728;DHT22;34527;45.618;5.130;2023-04-25T10:41:21;14.10;99.90
48728;DHT22;34527;45.618;5.130;2023-04-25T10:43:49;14.20;99.90
48728;DHT22;34527;45.618;5.130;2023-04-25T10:46:27;14.30;99.90
48728;DHT22;34527;45.618;5.130;2023-04-25T10:48:58;14.50;99.90
48728;DHT22;34527;45.618;5.130;2023-04-25T10:54:06;14.60;99.90
48728;DHT22;34527;45.618;5.130;2023-04-25T10:56:33;14.60;99.90
48728;DHT22;34527;45.618;5.130;2023-04-25T10:59:07;14.60;99.90
48728;DHT22;34527;45.618;5.130;2023-04-25T11:01:41;14.70;99.90
48728;DHT22;34527;45.618;5.130;2023-04-25T11:07:10;14.10;99.90
48728;DHT22;34527;45.618;5.130;2023-04-25T11:09:39;14.30;99.90
48728;DHT22;34527;45.618;5.130;2023-04-25T11:12:07;14.40;99.90
48728;DHT22;34527;45.618;5.130;2023-04-25T11:14:33;14.60;99.90
48728;DHT22;34527;45.618;5.130;2023-04-25T11:17:00;14.90;99.90
48728;DHT22;34527;45.618;5.130;2023-04-25T11:19:28;15.00;99.90
48728;DHT22;34527;45.618;5.130;2023-04-25T11:22:01;15.20;99.90
48728;DHT22;34527;45.618;5.130;2023-04-25T11:24:34;15.10;99.90
48728;DHT22;34527;45.618;5.130;2023-04-25T11:27:01;14.90;99.90
48728;DHT22;34527;45.618;5.130;2023-04-25T11:29:30;14.60;99.90
48728;DHT22;34527;45.618;5.130;2023-04-25T11:31:56;14.50;99.90
48728;DHT22;34527;45.618;5.130;2023-04-25T11:34:23;14.20;99.90
48728;DHT22;34527;45.618;5.130;2023-04-25T11:36:50;13.90;99.90
48728;DHT22;34527;45.618;5.130;2023-04-25T11:39:18;13.70;99.90
48728;DHT22;34527;45.618;5.130;2023-04-25T11:41:44;13.70;99.90
48728;DHT22;34527;45.618;5.130;2023-04-25T11:44:09;14.00;99.90
48728;DHT22;34527;45.618;5.130;2023-04-25T11:46:35;14.20;99.90
48728;DHT22;34527;45.618;5.130;2023-04-25T11:49:01;14.30;99.90
48728;DHT22;34527;45.618;5.130;2023-04-25T11:51:27;14.40;99.90
48728;DHT22;34527;45.618;5.130;2023-04-25T11:53:53;14.50;99.90
48728;DHT22;34527;45.618;5.130;2023-04-25T11:56:18;14.50;99.90
48728;DHT22;34527;45.618;5.130;2023-04-25T11:59:02;14.60;99.90
48728;DHT22;34527;45.618;5.130;2023-04-25T12:01:33;14.80;99.90
48728;DHT22;34527;45.618;5.130;2023-04-25T12:04:09;14.70;99.90
48728;DHT22;34527;45.618;5.130;2023-04-25T12:06:39;14.10;99.90
48728;DHT22;34527;45.618;5.130;2023-04-25T12:09:07;14.00;99.90
48728;DHT22;34527;45.618;5.130;2023-04-25T12:11:44;14.30;99.90
48728;DHT22;34527;45.618;5.130;2023-04-25T12:14:11;14.60;99.90
48728;DHT22;34527;45.618;5.130;2023-04-25T12:16:44;14.90;99.90
48728;DHT22;34527;45.618;5.130;2023-04-25T12:19:13;15.00;99.90
48728;DHT22;34527;45.618;5.130;2023-04-25T12:21:40;15.00;99.90
48728;DHT22;34527;45.618;5.130;2023-04-25T12:24:21;15.10;99.90
48728;DHT22;34527;45.618;5.130;2023-04-25T12:29:20;15.50;99.90
48728;DHT22;34527;45.618;5.130;2023-04-25T12:31:47;15.50;99.90
48728;DHT22;34527;45.618;5.130;2023-04-25T12:34:12;15.10;99.90
48728;DHT22;34527;45.618;5.130;2023-04-25T12:36:38;14.80;99.90
48728;DHT22;34527;45.618;5.130;2023-04-25T12:39:04;14.70;99.90
48728;DHT22;34527;45.618;5.130;2023-04-25T12:41:30;14.70;99.90
48728;DHT22;34527;45.618;5.130;2023-04-25T12:43:56;15.00;99.90
48728;DHT22;34527;45.618;5.130;2023-04-25T12:46:22;15.00;99.90
48728;DHT22;34527;45.618;5.130;2023-04-25T12:48:50;15.00;99.90
48728;DHT22;34527;45.618;5.130;2023-04-25T12:51:16;15.30;99.90
48728;DHT22;34527;45.618;5.130;2023-04-25T12:53:41;15.40;99.90
48728;DHT22;34527;45.618;5.130;2023-04-25T12:56:10;15.50;99.90
48728;DHT22;34527;45.618;5.130;2023-04-25T12:58:36;15.50;99.90
48728;DHT22;34527;45.618;5.130;2023-04-25T13:01:01;15.20;99.90
48728;DHT22;34527;45.618;5.130;2023-04-25T13:03:27;15.40;99.90
48728;DHT22;34527;45.618;5.130;2023-04-25T13:05:52;15.20;99.90
48728;DHT22;34527;45.618;5.130;2023-04-25T13:08:19;15.50;99.90
48728;DHT22;34527;45.618;5.130;2023-04-25T13:10:44;15.20;99.90
48728;DHT22;34527;45.618;5.130;2023-04-25T13:13:10;14.70;99.90
48728;DHT22;34527;45.618;5.130;2023-04-25T13:15:35;14.50;99.90
48728;DHT22;34527;45.618;5.130;2023-04-25T13:18:03;14.40;99.90
48728;DHT22;34527;45.618;5.130;2023-04-25T13:20:29;14.60;99.90
48728;DHT22;34527;45.618;5.130;2023-04-25T13:22:54;14.70;99.90
48728;DHT22;34527;45.618;5.130;2023-04-25T13:25:20;14.90;99.90
48728;DHT22;34527;45.618;5.130;2023-04-25T13:27:47;15.10;99.90
48728;DHT22;34527;45.618;5.130;2023-04-25T13:30:12;15.10;99.90
48728;DHT22;34527;45.618;5.130;2023-04-25T13:32:39;15.30;99.90
48728;DHT22;34527;45.618;5.130;2023-04-25T13:35:08;15.50;99.90
48728;DHT22;34527;45.618;5.130;2023-04-25T13:37:35;15.50;99.90
48728;DHT22;34527;45.618;5.130;2023-04-25T13:40:05;15.00;99.90
48728;DHT22;34527;45.618;5.130;2023-04-25T13:42:32;14.70;99.90
48728;DHT22;34527;45.618;5.130;2023-04-25T13:44:57;14.90;99.90
48728;DHT22;34527;45.618;5.130;2023-04-25T13:47:23;15.00;99.90
48728;DHT22;34527;45.618;5.130;2023-04-25T13:49:49;15.30;99.90
48728;DHT22;34527;45.618;5.130;2023-04-25T13:52:15;15.30;99.90
48728;DHT22;34527;45.618;5.130;2023-04-25T13:54:41;15.00;99.90
48728;DHT22;34527;45.618;5.130;2023-04-25T13:57:07;14.70;99.90
48728;DHT22;34527;45.618;5.130;2023-04-25T13:59:33;14.70;99.90
48728;DHT22;34527;45.618;5.130;2023-04-25T14:01:58;14.80;99.90
48728;DHT22;34527;45.618;5.130;2023-04-25T14:04:24;14.90;99.90
48728;DHT22;34527;45.618;5.130;2023-04-25T14:06:50;15.10;99.90
48728;DHT22;34527;45.618;5.130;2023-04-25T14:09:17;15.30;99.90
48728;DHT22;34527;45.618;5.130;2023-04-25T14:11:42;15.50;99.90
48728;DHT22;34527;45.618;5.130;2023-04-25T14:14:08;15.40;99.90
48728;DHT22;34527;45.618;5.130;2023-04-25T14:16:34;15.40;99.90
48728;DHT22;34527;45.618;5.130;2023-04-25T14:19:00;15.40;99.90
48728;DHT22;34527;45.618;5.130;2023-04-25T14:21:27;15.50;99.90
48728;DHT22;34527;45.618;5.130;2023-04-25T14:23:53;15.70;99.90
48728;DHT22;34527;45.618;5.130;2023-04-25T14:26:19;15.90;99.90
48728;DHT22;34527;45.618;5.130;2023-04-25T14:28:45;15.80;99.90
48728;DHT22;34527;45.618;5.130;2023-04-25T14:31:10;15.80;99.90
48728;DHT22;34527;45.618;5.130;2023-04-25T14:33:36;15.60;99.90
48728;DHT22;34527;45.618;5.130;2023-04-25T14:36:05;15.60;99.90
48728;DHT22;34527;45.618;5.130;2023-04-25T14:38:30;15.60;99.90
48728;DHT22;34527;45.618;5.130;2023-04-25T14:40:56;15.50;99.90
48728;DHT22;34527;45.618;5.130;2023-04-25T14:43:21;15.40;99.90
48728;DHT22;34527;45.618;5.130;2023-04-25T14:45:47;15.30;99.90
48728;DHT22;34527;45.618;5.130;2023-04-25T14:48:13;15.40;99.90
48728;DHT22;34527;45.618;5.130;2023-04-25T14:50:38;15.50;99.90
48728;DHT22;34527;45.618;5.130;2023-04-25T14:53:04;15.60;99.90
48728;DHT22;34527;45.618;5.130;2023-04-25T14:55:30;15.80;99.90
48728;DHT22;34527;45.618;5.130;2023-04-25T14:57:56;15.80;99.90
48728;DHT22;34527;45.618;5.130;2023-04-25T15:00:22;15.60;99.90
48728;DHT22;34527;45.618;5.130;2023-04-25T15:02:50;15.60;99.90
48728;DHT22;34527;45.618;5.130;2023-04-25T15:05:16;15.70;99.90
48728;DHT22;34527;45.618;5.130;2023-04-25T15:07:43;15.60;99.90
48728;DHT22;34527;45.618;5.130;2023-04-25T15:10:09;15.60;99.90
48728;DHT22;34527;45.618;5.130;2023-04-25T15:12:43;15.40;99.90
48728;DHT22;34527;45.618;5.130;2023-04-25T15:15:10;15.20;99.90
48728;DHT22;34527;45.618;5.130;2023-04-25T15:17:40;14.90;99.90
48728;DHT22;34527;45.618;5.130;2023-04-25T15:20:06;14.80;99.90
48728;DHT22;34527;45.618;5.130;2023-04-25T15:22:33;14.90;99.90
48728;DHT22;34527;45.618;5.130;2023-04-25T15:24:58;15.00;99.90
48728;DHT22;34527;45.618;5.130;2023-04-25T15:27:24;15.20;99.90
48728;DHT22;34527;45.618;5.130;2023-04-25T15:29:49;15.30;99.90
48728;DHT22;34527;45.618;5.130;2023-04-25T15:32:15;15.40;99.90
48728;DHT22;34527;45.618;5.130;2023-04-25T15:34:41;15.20;99.90
48728;DHT22;34527;45.618;5.130;2023-04-25T15:37:06;15.10;99.90